createdAt,value
2022-10-17T00:02:15.028Z,102064.59
2022-10-17T00:05:16.484Z,102067.94
2022-10-17T00:08:18.446Z,102061.78
2022-10-17T00:11:22.596Z,102061.72
2022-10-17T00:14:23.969Z,102073.88
2022-10-17T00:17:25.789Z,102089.66
2022-10-17T00:20:27.650Z,102087.25
2022-10-17T00:23:29.103Z,102082.50
2022-10-17T00:26:30.447Z,102093.91
2022-10-17T00:29:31.842Z,102094.94
2022-10-17T00:32:33.343Z,102093.38
2022-10-17T00:35:34.691Z,102085.72
2022-10-17T00:38:37.036Z,102079.88
2022-10-17T00:41:38.439Z,102080.00
2022-10-17T00:44:40.200Z,102084.28
2022-10-17T00:47:45.444Z,102092.00
2022-10-17T00:50:48.740Z,102105.81
2022-10-17T00:53:50.340Z,102105.69
2022-10-17T00:56:52.500Z,102116.22
2022-10-17T00:59:57.251Z,102119.31
2022-10-17T01:02:58.701Z,102123.56
2022-10-17T01:06:00.049Z,102114.78
2022-10-17T01:09:01.512Z,102111.19
2022-10-17T01:12:15.137Z,102106.81
2022-10-17T01:15:22.530Z,102089.19
2022-10-17T01:19:02.777Z,102090.38
2022-10-17T01:22:22.647Z,102088.34
2022-10-17T01:25:41.317Z,102082.09
2022-10-17T01:29:16.945Z,102060.50
2022-10-17T01:32:37.150Z,102072.38
2022-10-17T01:35:52.563Z,102077.38
2022-10-17T01:39:02.895Z,102083.22
2022-10-17T01:42:22.078Z,102074.41
2022-10-17T01:45:32.199Z,102080.34
2022-10-17T01:48:37.498Z,102071.53
2022-10-17T01:51:46.419Z,102045.56
2022-10-17T01:54:58.110Z,102047.19
2022-10-17T01:58:32.998Z,102036.00
2022-10-17T02:01:37.504Z,102033.22
2022-10-17T02:04:40.414Z,102030.56
2022-10-17T02:07:41.954Z,102020.19
2022-10-17T02:11:00.739Z,102025.44
2022-10-17T02:14:09.386Z,102015.75
2022-10-17T02:17:43.439Z,102014.94
2022-10-17T02:20:57.624Z,102013.97
2022-10-17T02:24:10.705Z,102005.38
2022-10-17T02:27:16.935Z,101999.41
2022-10-17T02:30:41.996Z,101995.84
2022-10-17T02:33:58.355Z,101991.63
2022-10-17T02:37:02.799Z,101994.16
2022-10-17T02:40:06.468Z,101986.31
2022-10-17T02:43:08.253Z,101987.34
2022-10-17T02:46:10.258Z,101988.28
2022-10-17T02:49:21.032Z,101978.69
2022-10-17T02:52:33.856Z,101971.78
2022-10-17T02:55:43.584Z,101981.13
2022-10-17T02:58:50.613Z,101966.44
2022-10-17T03:01:52.489Z,101975.06
2022-10-17T03:04:53.845Z,101976.75
2022-10-17T03:07:56.299Z,101974.84
2022-10-17T03:10:59.440Z,101974.03
2022-10-17T03:14:02.533Z,101974.81
2022-10-17T03:17:04.111Z,101963.44
2022-10-17T03:20:06.981Z,101958.34
2022-10-17T03:23:08.613Z,101951.59
2022-10-17T03:26:10.662Z,101946.50
2022-10-17T03:29:13.699Z,101948.91
2022-10-17T03:32:15.571Z,101948.09
2022-10-17T03:35:17.107Z,101944.63
2022-10-17T03:38:22.515Z,101949.94
2022-10-17T03:41:23.942Z,101951.72
2022-10-17T03:44:25.439Z,101959.72
2022-10-17T03:47:28.841Z,101964.25
2022-10-17T03:50:31.085Z,101964.44
2022-10-17T03:53:34.030Z,101973.09
2022-10-17T03:56:35.452Z,101960.03
2022-10-17T03:59:39.656Z,101959.94
2022-10-17T04:02:47.145Z,101948.91
2022-10-17T04:05:53.022Z,101949.00
2022-10-17T04:08:54.579Z,101953.56
2022-10-17T04:12:00.771Z,101949.28
2022-10-17T04:15:04.795Z,101958.91
2022-10-17T04:18:06.363Z,101943.50
2022-10-17T04:21:11.224Z,101947.06
2022-10-17T04:24:13.376Z,101951.41
2022-10-17T04:27:22.113Z,101944.59
2022-10-17T04:30:23.489Z,101940.44
2022-10-17T04:33:25.604Z,101937.84
2022-10-17T04:36:27.121Z,101937.09
2022-10-17T04:39:29.425Z,101936.28
2022-10-17T04:42:32.567Z,101941.59
2022-10-17T04:45:34.177Z,101943.53
2022-10-17T04:48:39.119Z,101945.41
2022-10-17T04:51:40.682Z,101938.63
2022-10-17T04:54:51.473Z,101942.94
2022-10-17T04:57:52.865Z,101931.75
2022-10-17T05:00:56.395Z,101931.88
2022-10-17T05:04:02.281Z,101939.81
2022-10-17T05:07:04.068Z,101926.94
2022-10-17T05:10:23.878Z,101926.28
2022-10-17T05:13:27.108Z,101921.28
2022-10-17T05:16:29.401Z,101924.00
2022-10-17T05:19:30.746Z,101927.59
2022-10-17T05:22:32.659Z,101922.56
2022-10-17T05:25:34.615Z,101923.50
2022-10-17T05:28:36.744Z,101935.72
2022-10-17T05:31:39.086Z,101929.03
2022-10-17T05:34:41.959Z,101928.41
2022-10-17T05:37:43.359Z,101935.47
2022-10-17T05:40:44.886Z,101925.25
2022-10-17T05:43:46.969Z,101927.03
2022-10-17T05:46:55.571Z,101928.06
2022-10-17T05:49:57.171Z,101923.78
2022-10-17T05:53:05.437Z,101914.38
2022-10-17T05:56:13.063Z,101913.69
2022-10-17T05:59:14.480Z,101923.91
2022-10-17T06:02:25.208Z,101916.97
2022-10-17T06:05:26.840Z,101918.59
2022-10-17T06:08:28.453Z,101922.94
2022-10-17T06:11:29.977Z,101914.28
2022-10-17T06:14:31.404Z,101910.75
2022-10-17T06:17:36.316Z,101901.91
2022-10-17T06:20:38.127Z,101901.66
2022-10-17T06:23:40.699Z,101897.78
2022-10-17T06:26:48.721Z,101905.13
2022-10-17T06:29:51.468Z,101893.13
2022-10-17T06:32:53.715Z,101909.72
2022-10-17T06:35:56.625Z,101910.47
2022-10-17T06:38:59.675Z,101910.94
2022-10-17T06:42:27.013Z,101911.00
2022-10-17T06:45:40.107Z,101904.78
2022-10-17T06:49:01.736Z,101914.88
2022-10-17T06:52:23.379Z,101910.94
2022-10-17T06:55:51.841Z,101905.31
2022-10-17T06:59:05.507Z,101902.25
2022-10-17T07:02:11.383Z,101902.50
2022-10-17T07:05:13.223Z,101910.66
2022-10-17T07:08:14.862Z,101920.34
2022-10-17T07:11:19.385Z,101924.00
2022-10-17T07:14:23.418Z,101925.19
2022-10-17T07:17:25.365Z,101930.94
2022-10-17T07:20:27.425Z,101925.31
2022-10-17T07:23:28.854Z,101924.19
2022-10-17T07:26:30.265Z,101923.19
2022-10-17T07:29:31.877Z,101921.25
2022-10-17T07:32:43.843Z,101941.09
2022-10-17T07:35:45.174Z,101926.44
2022-10-17T07:38:46.553Z,101946.41
2022-10-17T07:41:49.338Z,101939.81
2022-10-17T07:44:50.858Z,101948.63
2022-10-17T07:47:55.990Z,101950.25
2022-10-17T07:50:57.606Z,101952.94
2022-10-17T07:53:58.995Z,101952.97
2022-10-17T07:57:00.514Z,101949.00
2022-10-17T08:00:01.967Z,101939.22
2022-10-17T08:03:04.327Z,101944.63
2022-10-17T08:06:05.707Z,101954.03
2022-10-17T08:09:07.067Z,101949.28
2022-10-17T08:12:08.505Z,101941.22
2022-10-17T08:15:10.947Z,101923.19
2022-10-17T08:18:12.296Z,101925.66
2022-10-17T08:21:13.663Z,101916.88
2022-10-17T08:24:15.031Z,101921.56
2022-10-17T08:27:16.541Z,101910.91
2022-10-17T08:30:18.217Z,101901.94
2022-10-17T08:33:19.728Z,101902.19
2022-10-17T08:36:21.092Z,101915.16
2022-10-17T08:39:22.496Z,101910.28
2022-10-17T08:42:51.636Z,101902.16
2022-10-17T08:46:00.148Z,101898.38
2022-10-17T08:49:06.482Z,101908.47
2022-10-17T08:52:21.748Z,101906.94
2022-10-17T08:55:46.333Z,101907.75
2022-10-17T08:58:47.817Z,101907.47
2022-10-17T09:02:23.509Z,101902.59
2022-10-17T09:05:39.770Z,101893.94
2022-10-17T09:08:52.245Z,101890.84
2022-10-17T09:12:16.602Z,101906.66
2022-10-17T09:15:37.425Z,101910.31
2022-10-17T09:18:47.977Z,101907.75
2022-10-17T09:21:58.119Z,101910.53
2022-10-17T09:25:04.768Z,101913.50
2022-10-17T09:28:31.267Z,101909.38
2022-10-17T09:31:40.862Z,101910.66
2022-10-17T09:34:42.221Z,101902.09
2022-10-17T09:37:44.032Z,101903.44
2022-10-17T09:40:57.129Z,101903.84
2022-10-17T09:44:09.082Z,101900.69
2022-10-17T09:47:20.942Z,101902.88
2022-10-17T09:50:28.644Z,101892.69
2022-10-17T09:53:36.484Z,101893.66
2022-10-17T09:56:58.335Z,101896.78
2022-10-17T10:00:02.312Z,101899.75
2022-10-17T10:03:12.784Z,101899.97
2022-10-17T10:06:20.895Z,101911.06
2022-10-17T10:09:31.536Z,101906.75
2022-10-17T10:12:39.073Z,101916.19
2022-10-17T10:15:45.606Z,101921.66
2022-10-17T10:18:50.128Z,101927.94
2022-10-17T10:21:59.573Z,101930.44
2022-10-17T10:25:17.074Z,101932.84
2022-10-17T10:28:18.627Z,101923.22
2022-10-17T10:31:28.217Z,101926.16
2022-10-17T10:34:30.616Z,101926.88
2022-10-17T10:37:43.053Z,101926.03
2022-10-17T10:40:47.974Z,101924.97
2022-10-17T10:43:51.953Z,101931.19
2022-10-17T10:47:08.465Z,101933.28
2022-10-17T10:50:28.722Z,101948.25
2022-10-17T10:53:51.503Z,101944.94
2022-10-17T10:56:56.438Z,101953.19
2022-10-17T11:00:06.219Z,101946.63
2022-10-17T11:03:21.106Z,101942.66
2022-10-17T11:06:34.189Z,101946.72
2022-10-17T11:09:44.822Z,101947.47
2022-10-17T11:12:53.128Z,101954.47
2022-10-17T11:16:16.811Z,101956.03
2022-10-17T11:19:31.310Z,101958.13
2022-10-17T11:22:55.650Z,101956.75
2022-10-17T11:26:02.558Z,101953.31
2022-10-17T11:29:05.427Z,101951.50
2022-10-17T11:32:09.319Z,101957.38
2022-10-17T11:35:23.683Z,101961.75
2022-10-17T11:38:56.776Z,101963.78
2022-10-17T11:42:05.327Z,101960.06
2022-10-17T11:45:14.025Z,101956.09
2022-10-17T11:48:24.823Z,101946.00
2022-10-17T11:54:54.712Z,101971.06
2022-10-17T12:01:38.713Z,101987.78
2022-10-17T12:04:56.827Z,102016.69
2022-10-17T12:08:21.176Z,102033.72
2022-10-17T12:11:39.041Z,102017.78
2022-10-17T12:14:41.689Z,102022.16
2022-10-17T12:17:54.653Z,102032.88
2022-10-17T12:20:57.660Z,102036.50
2022-10-17T12:23:59.012Z,102027.97
2022-10-17T12:27:31.643Z,102036.19
2022-10-17T12:30:34.166Z,102023.88
2022-10-17T12:33:47.990Z,102034.00
2022-10-17T12:36:49.349Z,102025.03
2022-10-17T12:39:50.780Z,102025.69
2022-10-17T12:42:52.225Z,102039.16
2022-10-17T12:46:04.973Z,102046.91
2022-10-17T12:49:38.651Z,102055.31
2022-10-17T12:52:39.997Z,102088.44
2022-10-17T12:55:41.442Z,102082.66
2022-10-17T12:58:46.419Z,102095.81
2022-10-17T13:01:52.228Z,102117.34
2022-10-17T13:05:04.983Z,102136.16
2022-10-17T13:08:14.659Z,102095.81
2022-10-17T13:11:16.268Z,102076.81
2022-10-17T13:14:21.151Z,102064.59
2022-10-17T13:17:26.499Z,102048.09
2022-10-17T13:20:31.770Z,102034.09
2022-10-17T13:23:37.781Z,102049.75
2022-10-17T13:26:45.743Z,102061.78
2022-10-17T13:29:47.163Z,102058.25
2022-10-17T13:32:48.963Z,102069.59
2022-10-17T13:36:05.693Z,102082.75
2022-10-17T13:39:12.342Z,102089.94
2022-10-17T13:42:28.639Z,102109.31
2022-10-17T13:45:36.708Z,102127.66
2022-10-17T13:48:38.336Z,102112.94
2022-10-17T13:51:44.504Z,102091.22
2022-10-17T13:54:51.468Z,102103.53
2022-10-17T13:57:52.873Z,102108.84
2022-10-17T14:00:54.586Z,102098.22
2022-10-17T14:04:07.799Z,102091.31
2022-10-17T14:07:34.333Z,102095.03
2022-10-17T14:10:44.196Z,102112.84
2022-10-17T14:13:49.990Z,102103.91
2022-10-17T14:16:52.175Z,102115.00
2022-10-17T14:20:30.872Z,102101.94
2022-10-17T14:23:40.349Z,102122.91
2022-10-17T14:26:54.234Z,102128.81
2022-10-17T14:29:58.557Z,102146.69
2022-10-17T14:33:02.038Z,102149.22
2022-10-17T14:36:03.917Z,102150.16
2022-10-17T14:39:13.370Z,102147.66
2022-10-17T14:42:20.869Z,102153.91
2022-10-17T14:45:24.808Z,102160.97
2022-10-17T14:48:29.047Z,102160.13
2022-10-17T14:51:39.998Z,102172.31
2022-10-17T14:54:52.390Z,102179.50
2022-10-17T14:57:53.964Z,102182.22
2022-10-17T15:00:56.515Z,102184.81
2022-10-17T15:03:57.911Z,102195.44
2022-10-17T15:06:59.271Z,102199.91
2022-10-17T15:10:00.622Z,102197.38
2022-10-17T15:13:27.076Z,102200.91
2022-10-17T15:16:26.833Z,102199.31
2022-10-17T15:19:28.211Z,102202.00
2022-10-17T15:22:29.822Z,102207.31
2022-10-17T15:25:32.112Z,102210.75
2022-10-17T15:28:33.666Z,102208.44
2022-10-17T15:31:35.102Z,102215.34
2022-10-17T15:34:36.520Z,102214.56
2022-10-17T15:37:37.912Z,102224.16
2022-10-17T15:40:41.303Z,102218.94
2022-10-17T15:43:42.657Z,102221.66
2022-10-17T15:46:44.136Z,102223.44
2022-10-17T15:49:45.480Z,102226.09
2022-10-17T15:52:47.061Z,102227.16
2022-10-17T15:55:48.444Z,102236.81
2022-10-17T15:58:50.634Z,102238.69
2022-10-17T16:01:52.209Z,102241.53
2022-10-17T16:04:53.877Z,102237.16
2022-10-17T16:07:55.920Z,102238.16
2022-10-17T16:10:57.265Z,102240.09
2022-10-17T16:14:04.943Z,102235.75
2022-10-17T16:17:06.421Z,102247.94
2022-10-17T16:20:09.609Z,102246.19
2022-10-17T16:23:13.210Z,102247.00
2022-10-17T16:26:14.549Z,102249.78
2022-10-17T16:29:16.293Z,102240.25
2022-10-17T16:32:17.683Z,102241.34
2022-10-17T16:35:30.677Z,102246.38
2022-10-17T16:38:34.746Z,102239.66
2022-10-17T16:41:38.073Z,102252.69
2022-10-17T16:44:39.414Z,102258.91
2022-10-17T16:47:40.762Z,102264.13
2022-10-17T16:50:42.114Z,102271.13
2022-10-17T16:53:43.849Z,102277.25
2022-10-17T16:56:45.182Z,102277.34
2022-10-17T16:59:46.519Z,102270.44
2022-10-17T17:02:48.495Z,102277.50
2022-10-17T17:05:50.815Z,102281.03
2022-10-17T17:08:52.755Z,102289.88
2022-10-17T17:11:54.084Z,102286.44
2022-10-17T17:14:55.432Z,102298.53
2022-10-17T17:17:57.998Z,102306.44
2022-10-17T17:21:02.156Z,102295.16
2022-10-17T17:24:04.352Z,102291.81
2022-10-17T17:27:07.817Z,102300.56
2022-10-17T17:30:11.573Z,102300.56
2022-10-17T17:33:12.977Z,102309.19
2022-10-17T17:36:16.877Z,102307.47
2022-10-17T17:39:18.204Z,102314.59
2022-10-17T17:42:19.569Z,102311.06
2022-10-17T17:45:20.900Z,102316.28
2022-10-17T17:48:22.458Z,102324.09
2022-10-17T17:51:28.332Z,102321.41
2022-10-17T17:54:30.485Z,102323.31
2022-10-17T17:57:31.835Z,102323.25
2022-10-17T18:00:33.839Z,102321.50
2022-10-17T18:03:35.222Z,102328.53
2022-10-17T18:06:37.965Z,102332.84
2022-10-17T18:09:39.314Z,102338.97
2022-10-17T18:12:41.418Z,102337.22
2022-10-17T18:15:44.274Z,102344.19
2022-10-17T18:18:45.644Z,102356.56
2022-10-17T18:21:47.023Z,102353.00
2022-10-17T18:24:48.834Z,102356.56
2022-10-17T18:27:50.156Z,102373.09
2022-10-17T18:30:51.477Z,102359.63
2022-10-17T18:33:57.925Z,102378.25
2022-10-17T18:36:59.271Z,102379.75
2022-10-17T18:40:00.611Z,102371.56
2022-10-17T18:43:01.968Z,102382.19
2022-10-17T18:46:07.706Z,102373.06
2022-10-17T18:49:15.232Z,102364.63
2022-10-17T18:52:16.592Z,102349.34
2022-10-17T18:55:18.466Z,102354.47
2022-10-17T18:58:20.453Z,102359.84
2022-10-17T19:01:24.834Z,102362.50
2022-10-17T19:04:26.629Z,102369.78
2022-10-17T19:07:28.333Z,102382.25
2022-10-17T19:10:32.512Z,102387.78
2022-10-17T19:13:34.901Z,102396.88
2022-10-17T19:16:37.211Z,102390.22
2022-10-17T19:19:38.740Z,102389.72
2022-10-17T19:22:40.140Z,102398.59
2022-10-17T19:25:41.609Z,102401.34
2022-10-17T19:28:43.116Z,102405.84
2022-10-17T19:31:45.442Z,102404.28
2022-10-17T19:34:46.859Z,102408.09
2022-10-17T19:37:48.195Z,102409.00
2022-10-17T19:40:49.877Z,102415.34
2022-10-17T19:43:51.597Z,102417.31
2022-10-17T19:46:52.968Z,102418.38
2022-10-17T19:49:54.426Z,102415.88
2022-10-17T19:52:55.824Z,102430.81
2022-10-17T19:55:58.307Z,102432.69
2022-10-17T19:58:59.652Z,102444.97
2022-10-17T20:02:01.076Z,102441.59
2022-10-17T20:05:18.911Z,102444.28
2022-10-17T20:08:21.270Z,102460.00
2022-10-17T20:11:27.928Z,102454.03
2022-10-17T20:14:29.272Z,102459.22
2022-10-17T20:17:30.648Z,102461.06
2022-10-17T20:20:34.702Z,102463.59
2022-10-17T20:23:36.477Z,102467.22
2022-10-17T20:26:39.403Z,102472.44
2022-10-17T20:29:41.093Z,102484.63
2022-10-17T20:32:42.558Z,102482.81
2022-10-17T20:38:46.365Z,102500.16
2022-10-17T20:41:47.735Z,102507.13
2022-10-17T20:44:49.079Z,102504.59
2022-10-17T20:47:52.476Z,102503.81
2022-10-17T20:50:54.455Z,102522.13
2022-10-17T20:57:01.075Z,102528.28
2022-10-17T21:00:05.823Z,102534.38
2022-10-17T21:03:07.831Z,102534.38
2022-10-17T21:06:09.694Z,102532.66
2022-10-17T21:09:11.018Z,102526.69
2022-10-17T21:12:18.070Z,102531.03
2022-10-17T21:15:27.663Z,102536.22
2022-10-17T21:18:28.982Z,102529.22
2022-10-17T21:21:33.003Z,102528.28
2022-10-17T21:24:34.492Z,102527.47
2022-10-17T21:27:35.835Z,102532.78
2022-10-17T21:30:37.200Z,102527.66
2022-10-17T21:33:39.635Z,102519.88
2022-10-17T21:36:41.335Z,102528.63
2022-10-17T21:39:42.684Z,102529.41
2022-10-17T21:42:44.020Z,102531.09
2022-10-17T21:45:45.353Z,102537.09
2022-10-17T21:48:48.205Z,102542.03
2022-10-17T21:51:50.562Z,102541.75
2022-10-17T21:54:51.884Z,102529.50
2022-10-17T21:57:53.216Z,102528.44
2022-10-17T22:01:08.228Z,102540.34
2022-10-17T22:04:15.349Z,102533.34
2022-10-17T22:07:16.750Z,102542.72
2022-10-17T22:10:18.097Z,102552.97
2022-10-17T22:13:19.489Z,102558.16
2022-10-17T22:16:21.672Z,102553.13
2022-10-17T22:19:25.108Z,102557.78
2022-10-17T22:22:26.443Z,102562.25
2022-10-17T22:25:27.805Z,102559.84
2022-10-17T22:28:29.233Z,102567.00
2022-10-17T22:31:30.857Z,102561.13
2022-10-17T22:34:32.773Z,102559.56
2022-10-17T22:37:34.151Z,102555.31
2022-10-17T22:40:35.562Z,102551.13
2022-10-17T22:43:37.135Z,102556.44
2022-10-17T22:46:39.582Z,102556.63
2022-10-17T22:49:43.222Z,102552.53
2022-10-17T22:52:44.586Z,102560.44
2022-10-17T22:56:03.882Z,102562.19
2022-10-17T22:59:05.235Z,102558.91
2022-10-17T23:02:06.666Z,102555.56
2022-10-17T23:05:08.439Z,102553.03
2022-10-17T23:08:10.259Z,102554.78
2022-10-17T23:11:11.702Z,102558.25
2022-10-17T23:14:13.042Z,102548.75
2022-10-17T23:17:15.065Z,102556.59
2022-10-17T23:20:16.493Z,102558.47
2022-10-17T23:23:18.819Z,102566.31
2022-10-17T23:26:20.229Z,102557.81
2022-10-17T23:29:22.511Z,102556.97
2022-10-17T23:32:23.945Z,102564.88
2022-10-17T23:35:25.411Z,102563.97
2022-10-17T23:38:26.792Z,102557.97
2022-10-17T23:41:28.354Z,102562.47
2022-10-17T23:44:29.695Z,102556.47
2022-10-17T23:47:31.566Z,102562.47
2022-10-17T23:50:33.116Z,102558.19
2022-10-17T23:53:35.292Z,102561.59
2022-10-17T23:56:36.624Z,102571.03
2022-10-17T23:59:37.966Z,102577.81
